Sepinggan International Airport
WALL : now visible

Airfield :











YOU CAN JOIN US ON...

 
LOGIN :

Register | Disclaimer

   EN    FR    IT 

 









Legend :    VFR   Marginal VFR   IFR   Intensive IFR   Very Intensive IFR
Visi :
Ceiling :
>= 8 km
>= 3000ft
5 to 8 km
1000 to 3000 ft
1500m to 5 km
500 to 1000 ft
800 to 1500m
200 to 500 ft
< 800m
< 200 ft
Symbols :   Thunderstorms  Fog  Heavy snow  Heavy precipitations  Wind > 20 kt






- Airport Elevation : 12 ft
- IATA code : BPN


WALL - Sepinggan International

CURRENT METAR :
  • 181700Z 26012KT 9000 FEW018CB SCT020 26/25Q1010 RMK CB TO N AND SW

EXPIRED METARs :
  • 181630Z 23004KT 9000 FEW018CB SCT020 28/27Q1011 RMK CB TO N
  • 181600Z 24003KT 9000 FEW018CB SCT020 28/27Q1011 RMK CB TO N
  • 181530Z 25003KT 9000 FEW018CB SCT020 28/27Q1011 RMK CB TO N
  • 181500Z 26002KT 9000 SCT020 28/27 Q1011 NOSIG
  • 181430Z 00000KT 9000 FEW020 28/26 Q1010 NOSIG
  • 181400Z 28002KT 9000 FEW020 28/26 Q1010 NOSIG
  • 181330Z 30002KT 9000 FEW020 28/26 Q1010 NOSIG
  • 181300Z 00000KT 9000 FEW020 28/26 Q1010 NOSIG
  • 181230Z 27003KT 9999 FEW020 28/26 Q1010 NOSIG

TAF TAF WALL
Valid from the 18 at 18:00 until the 20 at 00:00 UTC


181700Z 1818/1924 23004KT 9999 SCT018
TEMPO 1821/1900 5000 -TSRA FEW017CB SCT018
WAAF FIR / Asia



MET'MAP, your aeronautical weather chart ! - Copyright ORBIFLY December 2007 - Disclaimer

ORBIFLY MET'MAP TEAM :

Programming & Development : Alexandra Zaïnal
Original concept : Baudouin d'Aumeries
Technical & hardware support : Manuel Goepfert
Assistance : Marc-Olivier Méhu




SOURCES & CREDITS :

   NOAA       Earth
Advisory